sensor_id;sensor_type;location;lat;lon;timestamp;temperature;humidity
25108;DHT22;13090;53.422;7.670;2023-05-24T00:02:08;11.40;71.80
25108;DHT22;13090;53.422;7.670;2023-05-24T00:07:30;11.40;72.20
25108;DHT22;13090;53.422;7.670;2023-05-24T00:12:50;11.40;72.20
25108;DHT22;13090;53.422;7.670;2023-05-24T00:18:13;11.50;72.50
25108;DHT22;13090;53.422;7.670;2023-05-24T00:23:34;11.60;72.80
25108;DHT22;13090;53.422;7.670;2023-05-24T00:28:54;11.60;72.60
25108;DHT22;13090;53.422;7.670;2023-05-24T00:34:17;11.70;72.50
25108;DHT22;13090;53.422;7.670;2023-05-24T00:39:38;11.70;72.50
25108;DHT22;13090;53.422;7.670;2023-05-24T00:44:59;11.80;72.30
25108;DHT22;13090;53.422;7.670;2023-05-24T00:50:21;11.80;72.20
25108;DHT22;13090;53.422;7.670;2023-05-24T00:55:42;11.80;72.50
25108;DHT22;13090;53.422;7.670;2023-05-24T01:01:03;11.80;72.40
25108;DHT22;13090;53.422;7.670;2023-05-24T01:06:27;11.80;72.60
25108;DHT22;13090;53.422;7.670;2023-05-24T01:11:57;11.80;72.90
25108;DHT22;13090;53.422;7.670;2023-05-24T01:17:24;11.80;73.20
25108;DHT22;13090;53.422;7.670;2023-05-24T01:23:13;11.80;73.10
25108;DHT22;13090;53.422;7.670;2023-05-24T01:28:38;11.80;74.60
25108;DHT22;13090;53.422;7.670;2023-05-24T01:34:00;11.80;73.20
25108;DHT22;13090;53.422;7.670;2023-05-24T01:39:22;11.80;73.00
25108;DHT22;13090;53.422;7.670;2023-05-24T01:44:54;11.90;73.30
25108;DHT22;13090;53.422;7.670;2023-05-24T01:50:21;11.90;73.80
25108;DHT22;13090;53.422;7.670;2023-05-24T01:56:02;11.90;73.60
25108;DHT22;13090;53.422;7.670;2023-05-24T02:01:27;11.90;73.30
25108;DHT22;13090;53.422;7.670;2023-05-24T02:06:48;12.00;73.60
25108;DHT22;13090;53.422;7.670;2023-05-24T02:12:10;12.00;73.40
25108;DHT22;13090;53.422;7.670;2023-05-24T02:17:32;12.00;73.50
25108;DHT22;13090;53.422;7.670;2023-05-24T02:22:53;12.00;73.40
25108;DHT22;13090;53.422;7.670;2023-05-24T02:28:14;11.90;73.30
25108;DHT22;13090;53.422;7.670;2023-05-24T02:33:36;11.90;73.40
25108;DHT22;13090;53.422;7.670;2023-05-24T02:38:57;11.90;73.70
25108;DHT22;13090;53.422;7.670;2023-05-24T02:44:18;11.80;73.60
25108;DHT22;13090;53.422;7.670;2023-05-24T02:49:41;11.80;73.80
25108;DHT22;13090;53.422;7.670;2023-05-24T02:55:01;11.80;74.00
25108;DHT22;13090;53.422;7.670;2023-05-24T03:00:22;11.70;74.00
25108;DHT22;13090;53.422;7.670;2023-05-24T03:05:45;11.70;75.00
25108;DHT22;13090;53.422;7.670;2023-05-24T03:11:06;11.70;74.30
25108;DHT22;13090;53.422;7.670;2023-05-24T03:16:26;11.70;74.30
25108;DHT22;13090;53.422;7.670;2023-05-24T03:21:49;11.70;74.40
25108;DHT22;13090;53.422;7.670;2023-05-24T03:27:10;11.70;74.80
25108;DHT22;13090;53.422;7.670;2023-05-24T03:32:31;11.70;74.90
25108;DHT22;13090;53.422;7.670;2023-05-24T03:37:53;11.80;75.00
25108;DHT22;13090;53.422;7.670;2023-05-24T03:43:14;11.80;75.10
25108;DHT22;13090;53.422;7.670;2023-05-24T03:48:35;11.90;75.00
25108;DHT22;13090;53.422;7.670;2023-05-24T03:53:58;12.00;75.00
25108;DHT22;13090;53.422;7.670;2023-05-24T03:59:18;12.00;75.20
25108;DHT22;13090;53.422;7.670;2023-05-24T04:04:39;12.10;75.20
25108;DHT22;13090;53.422;7.670;2023-05-24T04:10:02;12.10;75.20
25108;DHT22;13090;53.422;7.670;2023-05-24T04:15:23;12.20;75.40
25108;DHT22;13090;53.422;7.670;2023-05-24T04:20:43;12.30;75.30
25108;DHT22;13090;53.422;7.670;2023-05-24T04:26:06;12.30;75.40
25108;DHT22;13090;53.422;7.670;2023-05-24T04:31:27;12.40;75.60
25108;DHT22;13090;53.422;7.670;2023-05-24T04:36:48;12.50;75.50
25108;DHT22;13090;53.422;7.670;2023-05-24T04:42:10;12.60;75.40
25108;DHT22;13090;53.422;7.670;2023-05-24T04:47:31;12.70;75.60
25108;DHT22;13090;53.422;7.670;2023-05-24T04:52:52;12.80;75.30
25108;DHT22;13090;53.422;7.670;2023-05-24T04:58:14;12.90;75.40
25108;DHT22;13090;53.422;7.670;2023-05-24T05:03:35;13.00;75.50
25108;DHT22;13090;53.422;7.670;2023-05-24T05:08:56;13.10;75.40
25108;DHT22;13090;53.422;7.670;2023-05-24T05:14:18;13.20;75.20
25108;DHT22;13090;53.422;7.670;2023-05-24T05:19:39;13.30;75.20
25108;DHT22;13090;53.422;7.670;2023-05-24T05:25:00;13.40;75.00
25108;DHT22;13090;53.422;7.670;2023-05-24T05:30:22;13.50;75.00
25108;DHT22;13090;53.422;7.670;2023-05-24T05:35:43;13.50;75.10
25108;DHT22;13090;53.422;7.670;2023-05-24T05:41:04;13.60;75.00
25108;DHT22;13090;53.422;7.670;2023-05-24T05:46:27;13.70;74.80
25108;DHT22;13090;53.422;7.670;2023-05-24T05:51:48;13.60;74.60
25108;DHT22;13090;53.422;7.670;2023-05-24T05:57:09;13.70;74.60
25108;DHT22;13090;53.422;7.670;2023-05-24T06:02:31;13.70;74.70
25108;DHT22;13090;53.422;7.670;2023-05-24T06:07:52;13.90;74.80
25108;DHT22;13090;53.422;7.670;2023-05-24T06:13:13;13.90;74.40
25108;DHT22;13090;53.422;7.670;2023-05-24T06:18:35;14.00;74.30
25108;DHT22;13090;53.422;7.670;2023-05-24T06:23:56;14.10;74.40
25108;DHT22;13090;53.422;7.670;2023-05-24T06:29:18;14.20;74.60
25108;DHT22;13090;53.422;7.670;2023-05-24T06:34:40;14.40;74.50
25108;DHT22;13090;53.422;7.670;2023-05-24T06:40:01;14.50;74.30
25108;DHT22;13090;53.422;7.670;2023-05-24T06:45:22;14.70;73.90
25108;DHT22;13090;53.422;7.670;2023-05-24T06:50:45;14.80;73.30
25108;DHT22;13090;53.422;7.670;2023-05-24T06:56:06;14.80;73.00
25108;DHT22;13090;53.422;7.670;2023-05-24T07:01:28;14.80;73.00
25108;DHT22;13090;53.422;7.670;2023-05-24T07:06:51;14.80;72.80
25108;DHT22;13090;53.422;7.670;2023-05-24T07:12:12;14.90;73.00
25108;DHT22;13090;53.422;7.670;2023-05-24T07:17:33;15.00;73.10
25108;DHT22;13090;53.422;7.670;2023-05-24T07:22:55;15.20;73.20
25108;DHT22;13090;53.422;7.670;2023-05-24T07:28:17;15.40;72.70
25108;DHT22;13090;53.422;7.670;2023-05-24T07:33:38;15.60;72.40
25108;DHT22;13090;53.422;7.670;2023-05-24T07:39:00;15.80;71.90
25108;DHT22;13090;53.422;7.670;2023-05-24T07:44:22;15.90;71.50
25108;DHT22;13090;53.422;7.670;2023-05-24T07:49:43;16.00;71.20
25108;DHT22;13090;53.422;7.670;2023-05-24T07:55:06;16.00;71.20
25108;DHT22;13090;53.422;7.670;2023-05-24T08:00:27;16.10;71.20
25108;DHT22;13090;53.422;7.670;2023-05-24T08:05:48;16.20;71.30
25108;DHT22;13090;53.422;7.670;2023-05-24T08:11:10;16.40;70.90
25108;DHT22;13090;53.422;7.670;2023-05-24T08:16:31;16.50;71.00
25108;DHT22;13090;53.422;7.670;2023-05-24T08:21:54;16.70;70.70
25108;DHT22;13090;53.422;7.670;2023-05-24T08:27:17;16.90;70.50
25108;DHT22;13090;53.422;7.670;2023-05-24T08:32:38;17.10;70.50
25108;DHT22;13090;53.422;7.670;2023-05-24T08:37:58;17.50;70.40
25108;DHT22;13090;53.422;7.670;2023-05-24T08:43:22;18.00;69.80
25108;DHT22;13090;53.422;7.670;2023-05-24T08:48:44;18.50;69.20
25108;DHT22;13090;53.422;7.670;2023-05-24T08:54:06;19.00;68.80
25108;DHT22;13090;53.422;7.670;2023-05-24T08:59:30;19.50;67.80
25108;DHT22;13090;53.422;7.670;2023-05-24T09:04:52;19.90;66.40
25108;DHT22;13090;53.422;7.670;2023-05-24T09:10:13;19.90;65.50
25108;DHT22;13090;53.422;7.670;2023-05-24T09:15:36;19.90;65.20
25108;DHT22;13090;53.422;7.670;2023-05-24T09:20:57;20.00;64.60
25108;DHT22;13090;53.422;7.670;2023-05-24T09:26:19;20.00;64.00
25108;DHT22;13090;53.422;7.670;2023-05-24T09:31:42;19.80;63.60
25108;DHT22;13090;53.422;7.670;2023-05-24T09:37:03;20.00;66.30
25108;DHT22;13090;53.422;7.670;2023-05-24T09:42:25;20.60;64.80
25108;DHT22;13090;53.422;7.670;2023-05-24T09:47:48;21.10;64.10
25108;DHT22;13090;53.422;7.670;2023-05-24T09:53:09;21.70;63.30
25108;DHT22;13090;53.422;7.670;2023-05-24T09:58:31;22.10;61.30
25108;DHT22;13090;53.422;7.670;2023-05-24T10:03:54;22.20;59.80
25108;DHT22;13090;53.422;7.670;2023-05-24T10:09:16;22.00;59.00
25108;DHT22;13090;53.422;7.670;2023-05-24T10:14:38;21.80;58.80
25108;DHT22;13090;53.422;7.670;2023-05-24T10:20:00;21.60;58.90
25108;DHT22;13090;53.422;7.670;2023-05-24T10:25:22;21.30;58.60
25108;DHT22;13090;53.422;7.670;2023-05-24T10:30:53;21.00;58.80
25108;DHT22;13090;53.422;7.670;2023-05-24T10:36:19;20.80;58.30
25108;DHT22;13090;53.422;7.670;2023-05-24T10:41:40;20.50;58.80
25108;DHT22;13090;53.422;7.670;2023-05-24T10:47:09;20.40;59.20
25108;DHT22;13090;53.422;7.670;2023-05-24T10:52:35;20.30;59.10
25108;DHT22;13090;53.422;7.670;2023-05-24T10:57:56;20.30;59.70
25108;DHT22;13090;53.422;7.670;2023-05-24T11:03:18;20.40;60.40
25108;DHT22;13090;53.422;7.670;2023-05-24T11:08:41;20.40;59.70
25108;DHT22;13090;53.422;7.670;2023-05-24T11:14:02;20.40;59.50
25108;DHT22;13090;53.422;7.670;2023-05-24T11:19:29;20.40;60.60
25108;DHT22;13090;53.422;7.670;2023-05-24T11:24:52;20.50;59.40
25108;DHT22;13090;53.422;7.670;2023-05-24T11:30:14;20.60;59.20
25108;DHT22;13090;53.422;7.670;2023-05-24T11:35:36;20.60;58.90
25108;DHT22;13090;53.422;7.670;2023-05-24T11:40:58;20.60;58.60
25108;DHT22;13090;53.422;7.670;2023-05-24T11:46:19;20.70;58.70
25108;DHT22;13090;53.422;7.670;2023-05-24T11:51:41;20.80;58.60
25108;DHT22;13090;53.422;7.670;2023-05-24T11:57:04;20.90;58.80
25108;DHT22;13090;53.422;7.670;2023-05-24T12:02:25;21.00;58.50
25108;DHT22;13090;53.422;7.670;2023-05-24T12:08:00;21.00;58.10
25108;DHT22;13090;53.422;7.670;2023-05-24T12:13:24;21.00;57.50
25108;DHT22;13090;53.422;7.670;2023-05-24T12:18:46;21.10;58.20
25108;DHT22;13090;53.422;7.670;2023-05-24T12:24:25;21.20;57.80
25108;DHT22;13090;53.422;7.670;2023-05-24T12:29:48;21.20;57.40
25108;DHT22;13090;53.422;7.670;2023-05-24T12:35:10;21.20;56.90
25108;DHT22;13090;53.422;7.670;2023-05-24T12:40:32;21.10;56.80
25108;DHT22;13090;53.422;7.670;2023-05-24T12:45:55;21.00;56.90
25108;DHT22;13090;53.422;7.670;2023-05-24T12:51:16;20.90;57.00
25108;DHT22;13090;53.422;7.670;2023-05-24T12:56:36;20.80;57.20
25108;DHT22;13090;53.422;7.670;2023-05-24T13:01:59;20.60;57.30
25108;DHT22;13090;53.422;7.670;2023-05-24T13:07:20;20.50;57.50
25108;DHT22;13090;53.422;7.670;2023-05-24T13:12:41;20.50;57.70
25108;DHT22;13090;53.422;7.670;2023-05-24T13:18:03;20.40;57.80
25108;DHT22;13090;53.422;7.670;2023-05-24T13:23:25;20.30;57.50
25108;DHT22;13090;53.422;7.670;2023-05-24T13:28:46;20.20;58.40
25108;DHT22;13090;53.422;7.670;2023-05-24T13:34:31;20.00;57.80
25108;DHT22;13090;53.422;7.670;2023-05-24T13:39:52;19.90;58.00
25108;DHT22;13090;53.422;7.670;2023-05-24T13:45:13;19.90;58.50
25108;DHT22;13090;53.422;7.670;2023-05-24T13:50:35;19.90;58.50
25108;DHT22;13090;53.422;7.670;2023-05-24T13:55:56;20.00;58.30
25108;DHT22;13090;53.422;7.670;2023-05-24T14:01:18;20.00;58.50
25108;DHT22;13090;53.422;7.670;2023-05-24T14:06:40;20.10;58.50
25108;DHT22;13090;53.422;7.670;2023-05-24T14:12:01;20.10;58.30
25108;DHT22;13090;53.422;7.670;2023-05-24T14:17:22;20.10;58.60
25108;DHT22;13090;53.422;7.670;2023-05-24T14:22:44;20.20;58.60
25108;DHT22;13090;53.422;7.670;2023-05-24T14:28:06;20.20;58.60
25108;DHT22;13090;53.422;7.670;2023-05-24T14:33:26;20.20;58.50
25108;DHT22;13090;53.422;7.670;2023-05-24T14:38:49;20.00;58.40
25108;DHT22;13090;53.422;7.670;2023-05-24T14:44:10;19.90;58.40
25108;DHT22;13090;53.422;7.670;2023-05-24T14:49:31;19.70;58.50
25108;DHT22;13090;53.422;7.670;2023-05-24T14:54:53;19.50;58.70
25108;DHT22;13090;53.422;7.670;2023-05-24T15:00:16;19.30;59.20
25108;DHT22;13090;53.422;7.670;2023-05-24T15:05:42;19.30;59.60
25108;DHT22;13090;53.422;7.670;2023-05-24T15:11:04;19.30;59.70
25108;DHT22;13090;53.422;7.670;2023-05-24T15:16:25;19.40;59.60
25108;DHT22;13090;53.422;7.670;2023-05-24T15:21:46;19.40;59.50
25108;DHT22;13090;53.422;7.670;2023-05-24T15:27:08;19.40;59.30
25108;DHT22;13090;53.422;7.670;2023-05-24T15:32:29;19.40;59.50
25108;DHT22;13090;53.422;7.670;2023-05-24T15:37:50;19.30;59.60
25108;DHT22;13090;53.422;7.670;2023-05-24T15:43:12;19.30;59.50
25108;DHT22;13090;53.422;7.670;2023-05-24T15:48:34;19.10;59.50
25108;DHT22;13090;53.422;7.670;2023-05-24T15:53:54;19.10;59.80
25108;DHT22;13090;53.422;7.670;2023-05-24T15:59:17;19.10;59.80
25108;DHT22;13090;53.422;7.670;2023-05-24T16:04:41;19.10;59.80
25108;DHT22;13090;53.422;7.670;2023-05-24T16:10:01;19.20;59.70
25108;DHT22;13090;53.422;7.670;2023-05-24T16:15:24;19.30;59.60
25108;DHT22;13090;53.422;7.670;2023-05-24T16:20:45;19.40;59.30
25108;DHT22;13090;53.422;7.670;2023-05-24T16:26:06;19.50;59.20
25108;DHT22;13090;53.422;7.670;2023-05-24T16:31:29;19.50;59.10
25108;DHT22;13090;53.422;7.670;2023-05-24T16:36:50;19.60;59.00
25108;DHT22;13090;53.422;7.670;2023-05-24T16:42:11;19.50;59.00
25108;DHT22;13090;53.422;7.670;2023-05-24T16:47:33;19.50;59.10
25108;DHT22;13090;53.422;7.670;2023-05-24T16:52:54;19.40;59.10
25108;DHT22;13090;53.422;7.670;2023-05-24T16:58:15;19.30;59.20
25108;DHT22;13090;53.422;7.670;2023-05-24T17:03:38;19.30;59.30
25108;DHT22;13090;53.422;7.670;2023-05-24T17:08:58;19.20;59.30
25108;DHT22;13090;53.422;7.670;2023-05-24T17:14:24;19.20;59.20
25108;DHT22;13090;53.422;7.670;2023-05-24T17:19:47;19.20;59.20
25108;DHT22;13090;53.422;7.670;2023-05-24T17:25:08;19.20;59.20
25108;DHT22;13090;53.422;7.670;2023-05-24T17:30:29;19.20;59.20
25108;DHT22;13090;53.422;7.670;2023-05-24T17:35:52;19.10;59.10
25108;DHT22;13090;53.422;7.670;2023-05-24T17:41:13;19.00;59.10
25108;DHT22;13090;53.422;7.670;2023-05-24T17:46:33;19.00;59.10
25108;DHT22;13090;53.422;7.670;2023-05-24T17:52:01;18.90;59.00
25108;DHT22;13090;53.422;7.670;2023-05-24T17:57:22;18.80;59.10
25108;DHT22;13090;53.422;7.670;2023-05-24T18:02:44;18.70;59.40
25108;DHT22;13090;53.422;7.670;2023-05-24T18:08:07;18.50;59.50
25108;DHT22;13090;53.422;7.670;2023-05-24T18:13:28;18.40;59.60
25108;DHT22;13090;53.422;7.670;2023-05-24T18:18:49;18.30;59.60
25108;DHT22;13090;53.422;7.670;2023-05-24T18:24:11;18.20;59.70
25108;DHT22;13090;53.422;7.670;2023-05-24T18:29:32;18.00;59.80
25108;DHT22;13090;53.422;7.670;2023-05-24T18:34:53;17.80;59.80
25108;DHT22;13090;53.422;7.670;2023-05-24T18:40:15;17.70;60.10
25108;DHT22;13090;53.422;7.670;2023-05-24T18:45:37;17.50;60.80
25108;DHT22;13090;53.422;7.670;2023-05-24T18:50:57;17.40;61.20
25108;DHT22;13090;53.422;7.670;2023-05-24T18:56:20;17.30;61.50
25108;DHT22;13090;53.422;7.670;2023-05-24T19:01:40;17.30;61.80
25108;DHT22;13090;53.422;7.670;2023-05-24T19:07:03;17.20;61.50
25108;DHT22;13090;53.422;7.670;2023-05-24T19:12:26;17.10;61.60
25108;DHT22;13090;53.422;7.670;2023-05-24T19:17:47;16.90;61.70
25108;DHT22;13090;53.422;7.670;2023-05-24T19:23:08;16.70;61.80
25108;DHT22;13090;53.422;7.670;2023-05-24T19:28:30;16.50;62.10
25108;DHT22;13090;53.422;7.670;2023-05-24T19:33:51;16.20;62.70
25108;DHT22;13090;53.422;7.670;2023-05-24T19:39:21;16.00;63.00
25108;DHT22;13090;53.422;7.670;2023-05-24T19:44:43;15.80;63.20
25108;DHT22;13090;53.422;7.670;2023-05-24T19:50:05;15.50;63.80
25108;DHT22;13090;53.422;7.670;2023-05-24T19:55:26;15.40;64.30
25108;DHT22;13090;53.422;7.670;2023-05-24T20:00:48;15.20;64.50
25108;DHT22;13090;53.422;7.670;2023-05-24T20:06:11;15.00;65.10
25108;DHT22;13090;53.422;7.670;2023-05-24T20:11:32;14.80;65.10
25108;DHT22;13090;53.422;7.670;2023-05-24T20:16:54;14.60;65.40
25108;DHT22;13090;53.422;7.670;2023-05-24T20:22:15;14.40;66.00
25108;DHT22;13090;53.422;7.670;2023-05-24T20:27:39;14.30;66.10
25108;DHT22;13090;53.422;7.670;2023-05-24T20:33:01;14.10;66.70
25108;DHT22;13090;53.422;7.670;2023-05-24T20:38:22;14.00;67.30
25108;DHT22;13090;53.422;7.670;2023-05-24T20:43:44;14.00;67.70
25108;DHT22;13090;53.422;7.670;2023-05-24T20:49:07;13.90;68.00
25108;DHT22;13090;53.422;7.670;2023-05-24T20:54:28;13.90;68.50
25108;DHT22;13090;53.422;7.670;2023-05-24T20:59:49;13.80;68.50
25108;DHT22;13090;53.422;7.670;2023-05-24T21:05:11;13.80;68.70
25108;DHT22;13090;53.422;7.670;2023-05-24T21:10:32;13.80;69.00
25108;DHT22;13090;53.422;7.670;2023-05-24T21:15:53;13.70;68.70
25108;DHT22;13090;53.422;7.670;2023-05-24T21:21:15;13.60;68.80
25108;DHT22;13090;53.422;7.670;2023-05-24T21:26:36;13.50;69.50
25108;DHT22;13090;53.422;7.670;2023-05-24T21:31:57;13.50;69.90
25108;DHT22;13090;53.422;7.670;2023-05-24T21:37:19;13.40;69.90
25108;DHT22;13090;53.422;7.670;2023-05-24T21:42:40;13.40;70.10
25108;DHT22;13090;53.422;7.670;2023-05-24T21:48:01;13.30;69.90
25108;DHT22;13090;53.422;7.670;2023-05-24T21:53:23;13.20;70.10
25108;DHT22;13090;53.422;7.670;2023-05-24T21:58:44;13.10;70.50
25108;DHT22;13090;53.422;7.670;2023-05-24T22:04:05;13.00;70.50
25108;DHT22;13090;53.422;7.670;2023-05-24T22:09:27;12.90;70.80
25108;DHT22;13090;53.422;7.670;2023-05-24T22:14:48;12.80;71.40
25108;DHT22;13090;53.422;7.670;2023-05-24T22:20:10;12.70;71.30
25108;DHT22;13090;53.422;7.670;2023-05-24T22:25:33;12.60;71.50
25108;DHT22;13090;53.422;7.670;2023-05-24T22:30:54;12.60;71.80
25108;DHT22;13090;53.422;7.670;2023-05-24T22:36:15;12.50;71.80
25108;DHT22;13090;53.422;7.670;2023-05-24T22:41:37;12.50;71.70
25108;DHT22;13090;53.422;7.670;2023-05-24T22:46:58;12.40;71.80
25108;DHT22;13090;53.422;7.670;2023-05-24T22:52:19;12.30;71.80
25108;DHT22;13090;53.422;7.670;2023-05-24T22:57:41;12.30;72.00
25108;DHT22;13090;53.422;7.670;2023-05-24T23:03:02;12.20;72.20
25108;DHT22;13090;53.422;7.670;2023-05-24T23:08:23;12.10;72.10
25108;DHT22;13090;53.422;7.670;2023-05-24T23:13:46;12.10;72.20
25108;DHT22;13090;53.422;7.670;2023-05-24T23:19:06;12.00;72.20
25108;DHT22;13090;53.422;7.670;2023-05-24T23:24:27;12.00;72.10
25108;DHT22;13090;53.422;7.670;2023-05-24T23:29:49;11.90;72.30
25108;DHT22;13090;53.422;7.670;2023-05-24T23:35:10;11.90;72.70
25108;DHT22;13090;53.422;7.670;2023-05-24T23:40:32;11.80;72.60
25108;DHT22;13090;53.422;7.670;2023-05-24T23:45:54;11.70;72.70
25108;DHT22;13090;53.422;7.670;2023-05-24T23:51:15;11.70;72.90
25108;DHT22;13090;53.422;7.670;2023-05-24T23:56:36;11.70;73.00
